sensor_id;sensor_type;location;lat;lon;timestamp;temperature;humidity
52879;DHT22;38747;53.140;6.498;2023-02-02T00:00:15;3.70;99.90
52879;DHT22;38747;53.140;6.498;2023-02-02T00:02:41;3.60;99.90
52879;DHT22;38747;53.140;6.498;2023-02-02T00:05:06;3.60;99.90
52879;DHT22;38747;53.140;6.498;2023-02-02T00:07:32;3.60;99.90
52879;DHT22;38747;53.140;6.498;2023-02-02T00:09:58;3.60;99.90
52879;DHT22;38747;53.140;6.498;2023-02-02T00:12:23;3.60;99.90
52879;DHT22;38747;53.140;6.498;2023-02-02T00:14:49;3.60;99.90
52879;DHT22;38747;53.140;6.498;2023-02-02T00:17:15;3.50;99.90
52879;DHT22;38747;53.140;6.498;2023-02-02T00:19:40;3.50;99.90
52879;DHT22;38747;53.140;6.498;2023-02-02T00:22:06;3.50;99.90
52879;DHT22;38747;53.140;6.498;2023-02-02T00:24:31;3.50;99.90
52879;DHT22;38747;53.140;6.498;2023-02-02T00:26:58;3.50;99.90
52879;DHT22;38747;53.140;6.498;2023-02-02T00:29:28;3.50;99.90
52879;DHT22;38747;53.140;6.498;2023-02-02T00:31:54;3.50;99.90
52879;DHT22;38747;53.140;6.498;2023-02-02T00:34:20;3.50;99.90
52879;DHT22;38747;53.140;6.498;2023-02-02T00:36:47;3.50;99.90
52879;DHT22;38747;53.140;6.498;2023-02-02T00:39:15;3.50;99.90
52879;DHT22;38747;53.140;6.498;2023-02-02T00:41:43;3.50;99.90
52879;DHT22;38747;53.140;6.498;2023-02-02T00:44:08;3.50;99.90
52879;DHT22;38747;53.140;6.498;2023-02-02T00:46:52;3.50;99.90
52879;DHT22;38747;53.140;6.498;2023-02-02T00:49:18;3.60;99.90
52879;DHT22;38747;53.140;6.498;2023-02-02T00:51:44;3.60;99.90
52879;DHT22;38747;53.140;6.498;2023-02-02T00:54:09;3.60;99.90
52879;DHT22;38747;53.140;6.498;2023-02-02T00:56:35;3.60;99.90
52879;DHT22;38747;53.140;6.498;2023-02-02T00:59:00;3.60;99.90
52879;DHT22;38747;53.140;6.498;2023-02-02T01:01:27;3.60;99.90
52879;DHT22;38747;53.140;6.498;2023-02-02T01:03:53;3.60;99.90
52879;DHT22;38747;53.140;6.498;2023-02-02T01:06:18;3.60;99.90
52879;DHT22;38747;53.140;6.498;2023-02-02T01:08:44;3.70;99.90
52879;DHT22;38747;53.140;6.498;2023-02-02T01:11:10;3.70;99.90
52879;DHT22;38747;53.140;6.498;2023-02-02T01:13:36;3.80;99.90
52879;DHT22;38747;53.140;6.498;2023-02-02T01:16:03;3.80;99.90
52879;DHT22;38747;53.140;6.498;2023-02-02T01:18:29;3.90;99.90
52879;DHT22;38747;53.140;6.498;2023-02-02T01:21:06;3.90;99.90
52879;DHT22;38747;53.140;6.498;2023-02-02T01:23:32;4.00;99.90
52879;DHT22;38747;53.140;6.498;2023-02-02T01:26:00;4.10;99.90
52879;DHT22;38747;53.140;6.498;2023-02-02T01:28:29;4.10;99.90
52879;DHT22;38747;53.140;6.498;2023-02-02T01:30:56;4.10;99.90
52879;DHT22;38747;53.140;6.498;2023-02-02T01:33:22;4.20;99.90
52879;DHT22;38747;53.140;6.498;2023-02-02T01:35:50;4.20;99.90
52879;DHT22;38747;53.140;6.498;2023-02-02T01:38:16;4.30;99.90
52879;DHT22;38747;53.140;6.498;2023-02-02T01:40:46;4.30;99.90
52879;DHT22;38747;53.140;6.498;2023-02-02T01:46:14;4.30;99.90
52879;DHT22;38747;53.140;6.498;2023-02-02T01:48:47;4.40;99.90
52879;DHT22;38747;53.140;6.498;2023-02-02T01:51:17;4.30;99.90
52879;DHT22;38747;53.140;6.498;2023-02-02T01:53:45;4.30;99.90
52879;DHT22;38747;53.140;6.498;2023-02-02T01:56:16;4.30;99.90
52879;DHT22;38747;53.140;6.498;2023-02-02T01:58:44;4.40;99.90
52879;DHT22;38747;53.140;6.498;2023-02-02T02:01:10;4.40;99.90
52879;DHT22;38747;53.140;6.498;2023-02-02T02:03:36;4.40;99.90
52879;DHT22;38747;53.140;6.498;2023-02-02T02:06:16;4.40;99.90
52879;DHT22;38747;53.140;6.498;2023-02-02T02:08:50;4.50;99.90
52879;DHT22;38747;53.140;6.498;2023-02-02T02:11:18;4.50;99.90
52879;DHT22;38747;53.140;6.498;2023-02-02T02:13:44;4.50;99.90
52879;DHT22;38747;53.140;6.498;2023-02-02T02:25:51;4.50;99.90
52879;DHT22;38747;53.140;6.498;2023-02-02T02:34:15;4.60;99.90
52879;DHT22;38747;53.140;6.498;2023-02-02T02:37:15;4.60;99.90
52879;DHT22;38747;53.140;6.498;2023-02-02T02:39:56;4.70;99.90
52879;DHT22;38747;53.140;6.498;2023-02-02T02:42:27;4.70;99.90
52879;DHT22;38747;53.140;6.498;2023-02-02T02:44:55;4.80;99.90
52879;DHT22;38747;53.140;6.498;2023-02-02T02:47:24;4.80;99.90
52879;DHT22;38747;53.140;6.498;2023-02-02T02:49:50;4.80;99.90
52879;DHT22;38747;53.140;6.498;2023-02-02T02:52:15;4.80;99.90
52879;DHT22;38747;53.140;6.498;2023-02-02T02:54:48;4.80;99.90
52879;DHT22;38747;53.140;6.498;2023-02-02T03:00:07;4.90;99.90
52879;DHT22;38747;53.140;6.498;2023-02-02T03:08:04;5.00;99.90
52879;DHT22;38747;53.140;6.498;2023-02-02T03:10:32;5.00;99.90
52879;DHT22;38747;53.140;6.498;2023-02-02T03:12:58;5.00;99.90
52879;DHT22;38747;53.140;6.498;2023-02-02T03:15:24;5.10;99.90
52879;DHT22;38747;53.140;6.498;2023-02-02T03:17:51;5.20;99.90
52879;DHT22;38747;53.140;6.498;2023-02-02T03:20:18;5.20;99.90
52879;DHT22;38747;53.140;6.498;2023-02-02T03:22:44;5.30;99.90
52879;DHT22;38747;53.140;6.498;2023-02-02T03:25:09;5.30;99.90
52879;DHT22;38747;53.140;6.498;2023-02-02T03:27:36;5.30;99.90
52879;DHT22;38747;53.140;6.498;2023-02-02T03:30:04;5.30;99.90
52879;DHT22;38747;53.140;6.498;2023-02-02T03:32:30;5.30;99.90
52879;DHT22;38747;53.140;6.498;2023-02-02T03:34:55;5.30;99.90
52879;DHT22;38747;53.140;6.498;2023-02-02T03:37:21;5.40;99.90
52879;DHT22;38747;53.140;6.498;2023-02-02T03:39:47;5.40;99.90
52879;DHT22;38747;53.140;6.498;2023-02-02T03:42:12;5.40;99.90
52879;DHT22;38747;53.140;6.498;2023-02-02T03:44:38;5.40;99.90
52879;DHT22;38747;53.140;6.498;2023-02-02T03:47:03;5.50;99.90
52879;DHT22;38747;53.140;6.498;2023-02-02T03:49:29;5.40;99.90
52879;DHT22;38747;53.140;6.498;2023-02-02T03:51:55;5.50;99.90
52879;DHT22;38747;53.140;6.498;2023-02-02T03:54:20;5.50;99.90
52879;DHT22;38747;53.140;6.498;2023-02-02T03:56:46;5.40;99.90
52879;DHT22;38747;53.140;6.498;2023-02-02T03:59:11;5.40;99.90
52879;DHT22;38747;53.140;6.498;2023-02-02T04:01:37;5.40;99.90
52879;DHT22;38747;53.140;6.498;2023-02-02T04:04:02;5.40;99.90
52879;DHT22;38747;53.140;6.498;2023-02-02T04:06:28;5.40;99.90
52879;DHT22;38747;53.140;6.498;2023-02-02T04:08:54;5.40;99.90
52879;DHT22;38747;53.140;6.498;2023-02-02T04:11:19;5.30;99.90
52879;DHT22;38747;53.140;6.498;2023-02-02T04:13:45;5.20;99.90
52879;DHT22;38747;53.140;6.498;2023-02-02T04:16:11;5.20;99.90
52879;DHT22;38747;53.140;6.498;2023-02-02T04:18:37;5.20;99.90
52879;DHT22;38747;53.140;6.498;2023-02-02T04:21:03;5.20;99.90
52879;DHT22;38747;53.140;6.498;2023-02-02T04:23:30;5.10;99.90
52879;DHT22;38747;53.140;6.498;2023-02-02T04:25:56;5.10;99.90
52879;DHT22;38747;53.140;6.498;2023-02-02T04:28:22;5.00;99.90
52879;DHT22;38747;53.140;6.498;2023-02-02T04:30:49;5.00;99.90
52879;DHT22;38747;53.140;6.498;2023-02-02T04:33:15;4.90;99.90
52879;DHT22;38747;53.140;6.498;2023-02-02T04:35:44;4.90;99.90
52879;DHT22;38747;53.140;6.498;2023-02-02T04:38:10;4.90;99.90
52879;DHT22;38747;53.140;6.498;2023-02-02T04:40:40;4.80;99.90
52879;DHT22;38747;53.140;6.498;2023-02-02T04:43:06;4.80;99.90
52879;DHT22;38747;53.140;6.498;2023-02-02T04:45:31;4.80;99.90
52879;DHT22;38747;53.140;6.498;2023-02-02T04:47:57;4.80;99.90
52879;DHT22;38747;53.140;6.498;2023-02-02T04:50:23;4.80;99.90
52879;DHT22;38747;53.140;6.498;2023-02-02T04:52:48;4.80;99.90
52879;DHT22;38747;53.140;6.498;2023-02-02T04:55:14;4.80;99.90
52879;DHT22;38747;53.140;6.498;2023-02-02T04:57:40;4.80;99.90
52879;DHT22;38747;53.140;6.498;2023-02-02T05:00:06;4.70;99.90
52879;DHT22;38747;53.140;6.498;2023-02-02T05:02:35;4.80;99.90
52879;DHT22;38747;53.140;6.498;2023-02-02T05:05:01;4.80;99.90
52879;DHT22;38747;53.140;6.498;2023-02-02T05:07:27;4.70;99.90
52879;DHT22;38747;53.140;6.498;2023-02-02T05:09:52;4.70;99.90
52879;DHT22;38747;53.140;6.498;2023-02-02T05:12:18;4.70;99.90
52879;DHT22;38747;53.140;6.498;2023-02-02T05:14:43;4.70;99.90
52879;DHT22;38747;53.140;6.498;2023-02-02T05:17:09;4.70;99.90
52879;DHT22;38747;53.140;6.498;2023-02-02T05:19:35;4.70;99.90
52879;DHT22;38747;53.140;6.498;2023-02-02T05:22:00;4.70;99.90
52879;DHT22;38747;53.140;6.498;2023-02-02T05:24:26;4.70;99.90
52879;DHT22;38747;53.140;6.498;2023-02-02T05:26:52;4.70;99.90
52879;DHT22;38747;53.140;6.498;2023-02-02T05:29:23;4.70;99.90
52879;DHT22;38747;53.140;6.498;2023-02-02T05:31:48;4.70;99.90
52879;DHT22;38747;53.140;6.498;2023-02-02T05:34:14;4.70;99.90
52879;DHT22;38747;53.140;6.498;2023-02-02T05:36:39;4.70;99.90
52879;DHT22;38747;53.140;6.498;2023-02-02T05:39:05;4.70;99.90
52879;DHT22;38747;53.140;6.498;2023-02-02T05:41:31;4.70;99.90
52879;DHT22;38747;53.140;6.498;2023-02-02T05:44:00;4.70;99.90
52879;DHT22;38747;53.140;6.498;2023-02-02T05:46:26;4.60;99.90
52879;DHT22;38747;53.140;6.498;2023-02-02T05:48:52;4.70;99.90
52879;DHT22;38747;53.140;6.498;2023-02-02T05:51:29;4.70;99.90
52879;DHT22;38747;53.140;6.498;2023-02-02T05:53:56;4.70;99.90
52879;DHT22;38747;53.140;6.498;2023-02-02T05:56:22;4.70;99.90
52879;DHT22;38747;53.140;6.498;2023-02-02T05:58:47;4.70;99.90
52879;DHT22;38747;53.140;6.498;2023-02-02T06:01:15;4.70;99.90
52879;DHT22;38747;53.140;6.498;2023-02-02T06:03:41;4.70;99.90
52879;DHT22;38747;53.140;6.498;2023-02-02T06:06:07;4.70;99.90
52879;DHT22;38747;53.140;6.498;2023-02-02T06:08:34;4.70;99.90
52879;DHT22;38747;53.140;6.498;2023-02-02T06:11:06;4.70;99.90
52879;DHT22;38747;53.140;6.498;2023-02-02T06:13:34;4.60;99.90
52879;DHT22;38747;53.140;6.498;2023-02-02T06:16:00;4.60;99.90
52879;DHT22;38747;53.140;6.498;2023-02-02T06:18:25;4.70;99.90
52879;DHT22;38747;53.140;6.498;2023-02-02T06:20:56;4.70;99.90
52879;DHT22;38747;53.140;6.498;2023-02-02T06:23:22;4.60;99.90
52879;DHT22;38747;53.140;6.498;2023-02-02T06:25:47;4.60;99.90
52879;DHT22;38747;53.140;6.498;2023-02-02T06:28:13;4.70;99.90
52879;DHT22;38747;53.140;6.498;2023-02-02T06:30:38;4.60;99.90
52879;DHT22;38747;53.140;6.498;2023-02-02T06:33:04;4.70;99.90
52879;DHT22;38747;53.140;6.498;2023-02-02T06:35:31;4.60;99.90
52879;DHT22;38747;53.140;6.498;2023-02-02T06:37:57;4.60;99.90
52879;DHT22;38747;53.140;6.498;2023-02-02T06:40:23;4.60;99.90
52879;DHT22;38747;53.140;6.498;2023-02-02T06:42:58;4.60;99.90
52879;DHT22;38747;53.140;6.498;2023-02-02T06:45:24;4.60;99.90
52879;DHT22;38747;53.140;6.498;2023-02-02T06:47:51;4.60;99.90
52879;DHT22;38747;53.140;6.498;2023-02-02T06:50:16;4.60;99.90
52879;DHT22;38747;53.140;6.498;2023-02-02T06:52:49;4.60;99.90
52879;DHT22;38747;53.140;6.498;2023-02-02T06:55:15;4.60;99.90
52879;DHT22;38747;53.140;6.498;2023-02-02T06:57:41;4.60;99.90
52879;DHT22;38747;53.140;6.498;2023-02-02T07:00:07;4.60;99.90
52879;DHT22;38747;53.140;6.498;2023-02-02T07:02:34;4.70;99.90
52879;DHT22;38747;53.140;6.498;2023-02-02T07:05:00;4.60;99.90
52879;DHT22;38747;53.140;6.498;2023-02-02T07:07:26;4.60;99.90
52879;DHT22;38747;53.140;6.498;2023-02-02T07:09:51;4.60;99.90
52879;DHT22;38747;53.140;6.498;2023-02-02T07:12:17;4.60;99.90
52879;DHT22;38747;53.140;6.498;2023-02-02T07:14:44;4.60;99.90
52879;DHT22;38747;53.140;6.498;2023-02-02T07:17:10;4.60;99.90
52879;DHT22;38747;53.140;6.498;2023-02-02T07:19:36;4.60;99.90
52879;DHT22;38747;53.140;6.498;2023-02-02T07:22:01;4.60;99.90
52879;DHT22;38747;53.140;6.498;2023-02-02T07:24:27;4.60;99.90
52879;DHT22;38747;53.140;6.498;2023-02-02T07:26:53;4.60;99.90
52879;DHT22;38747;53.140;6.498;2023-02-02T07:29:19;4.60;99.90
52879;DHT22;38747;53.140;6.498;2023-02-02T07:31:44;4.60;99.90
52879;DHT22;38747;53.140;6.498;2023-02-02T07:34:10;4.70;99.90
52879;DHT22;38747;53.140;6.498;2023-02-02T07:36:36;4.70;99.90
52879;DHT22;38747;53.140;6.498;2023-02-02T07:39:03;4.70;99.90
52879;DHT22;38747;53.140;6.498;2023-02-02T07:41:29;4.70;99.90
52879;DHT22;38747;53.140;6.498;2023-02-02T07:43:55;4.70;99.90
52879;DHT22;38747;53.140;6.498;2023-02-02T07:46:20;4.70;99.90
52879;DHT22;38747;53.140;6.498;2023-02-02T07:48:46;4.70;99.90
52879;DHT22;38747;53.140;6.498;2023-02-02T07:51:14;4.70;99.90
52879;DHT22;38747;53.140;6.498;2023-02-02T07:53:45;4.80;99.90
52879;DHT22;38747;53.140;6.498;2023-02-02T07:58:42;4.80;99.90
52879;DHT22;38747;53.140;6.498;2023-02-02T08:01:09;4.80;99.90
52879;DHT22;38747;53.140;6.498;2023-02-02T08:03:35;4.80;99.90
52879;DHT22;38747;53.140;6.498;2023-02-02T08:06:08;4.80;99.90
52879;DHT22;38747;53.140;6.498;2023-02-02T08:08:34;4.90;99.90
52879;DHT22;38747;53.140;6.498;2023-02-02T08:11:00;4.80;99.90
52879;DHT22;38747;53.140;6.498;2023-02-02T08:13:25;4.90;99.90
52879;DHT22;38747;53.140;6.498;2023-02-02T08:15:51;4.90;99.90
52879;DHT22;38747;53.140;6.498;2023-02-02T08:18:16;4.90;99.90
52879;DHT22;38747;53.140;6.498;2023-02-02T08:20:42;5.00;99.90
52879;DHT22;38747;53.140;6.498;2023-02-02T08:23:08;4.90;99.90
52879;DHT22;38747;53.140;6.498;2023-02-02T08:25:38;5.00;99.90
52879;DHT22;38747;53.140;6.498;2023-02-02T08:28:04;5.00;99.90
52879;DHT22;38747;53.140;6.498;2023-02-02T08:30:30;5.00;99.90
52879;DHT22;38747;53.140;6.498;2023-02-02T08:32:56;4.90;99.90
52879;DHT22;38747;53.140;6.498;2023-02-02T08:35:22;5.00;99.90
52879;DHT22;38747;53.140;6.498;2023-02-02T08:37:48;5.00;99.90
52879;DHT22;38747;53.140;6.498;2023-02-02T08:40:14;5.00;99.90
52879;DHT22;38747;53.140;6.498;2023-02-02T08:42:39;5.00;99.90
52879;DHT22;38747;53.140;6.498;2023-02-02T08:45:05;5.10;99.90
52879;DHT22;38747;53.140;6.498;2023-02-02T08:47:31;5.10;99.90
52879;DHT22;38747;53.140;6.498;2023-02-02T08:49:57;5.10;99.90
52879;DHT22;38747;53.140;6.498;2023-02-02T08:52:22;5.20;99.90
52879;DHT22;38747;53.140;6.498;2023-02-02T08:54:48;5.10;99.90
52879;DHT22;38747;53.140;6.498;2023-02-02T08:57:13;5.20;99.90
52879;DHT22;38747;53.140;6.498;2023-02-02T08:59:39;5.30;99.90
52879;DHT22;38747;53.140;6.498;2023-02-02T09:02:05;5.30;99.90
52879;DHT22;38747;53.140;6.498;2023-02-02T09:04:31;5.30;99.90
52879;DHT22;38747;53.140;6.498;2023-02-02T09:06:56;5.30;99.90
52879;DHT22;38747;53.140;6.498;2023-02-02T09:09:22;5.40;99.90
52879;DHT22;38747;53.140;6.498;2023-02-02T09:11:48;5.40;99.90
52879;DHT22;38747;53.140;6.498;2023-02-02T09:14:13;5.40;99.90
52879;DHT22;38747;53.140;6.498;2023-02-02T09:16:39;5.50;99.90
52879;DHT22;38747;53.140;6.498;2023-02-02T09:19:05;5.50;99.90
52879;DHT22;38747;53.140;6.498;2023-02-02T09:21:31;5.50;99.90
52879;DHT22;38747;53.140;6.498;2023-02-02T09:24:05;5.60;99.90
52879;DHT22;38747;53.140;6.498;2023-02-02T09:26:31;5.60;99.90
52879;DHT22;38747;53.140;6.498;2023-02-02T09:28:59;5.70;99.90
52879;DHT22;38747;53.140;6.498;2023-02-02T09:31:27;5.70;99.90
52879;DHT22;38747;53.140;6.498;2023-02-02T09:33:53;5.70;99.90
52879;DHT22;38747;53.140;6.498;2023-02-02T09:36:21;5.70;99.90
52879;DHT22;38747;53.140;6.498;2023-02-02T09:38:48;5.80;99.90
52879;DHT22;38747;53.140;6.498;2023-02-02T09:43:54;5.80;99.90
52879;DHT22;38747;53.140;6.498;2023-02-02T09:49:23;5.90;99.90
52879;DHT22;38747;53.140;6.498;2023-02-02T09:51:57;5.90;99.90
52879;DHT22;38747;53.140;6.498;2023-02-02T09:54:45;5.90;99.90
52879;DHT22;38747;53.140;6.498;2023-02-02T09:57:21;6.00;99.90
52879;DHT22;38747;53.140;6.498;2023-02-02T09:59:50;6.00;99.90
52879;DHT22;38747;53.140;6.498;2023-02-02T10:02:30;6.00;99.90
52879;DHT22;38747;53.140;6.498;2023-02-02T10:05:06;6.10;99.90
52879;DHT22;38747;53.140;6.498;2023-02-02T10:07:41;6.10;99.90
52879;DHT22;38747;53.140;6.498;2023-02-02T10:10:25;6.20;99.90
52879;DHT22;38747;53.140;6.498;2023-02-02T10:12:56;6.20;99.90
52879;DHT22;38747;53.140;6.498;2023-02-02T10:20:47;6.40;99.90
52879;DHT22;38747;53.140;6.498;2023-02-02T10:23:35;6.40;99.90
52879;DHT22;38747;53.140;6.498;2023-02-02T10:28:42;6.50;99.90
52879;DHT22;38747;53.140;6.498;2023-02-02T10:31:21;6.60;99.90
52879;DHT22;38747;53.140;6.498;2023-02-02T10:34:09;6.60;99.90
52879;DHT22;38747;53.140;6.498;2023-02-02T10:39:41;6.60;99.90
52879;DHT22;38747;53.140;6.498;2023-02-02T10:42:33;6.60;99.90
52879;DHT22;38747;53.140;6.498;2023-02-02T10:45:16;6.60;99.90
52879;DHT22;38747;53.140;6.498;2023-02-02T10:47:43;6.60;99.90
52879;DHT22;38747;53.140;6.498;2023-02-02T10:50:14;6.60;99.90
52879;DHT22;38747;53.140;6.498;2023-02-02T10:52:52;6.60;99.90
52879;DHT22;38747;53.140;6.498;2023-02-02T10:55:39;6.60;99.90
52879;DHT22;38747;53.140;6.498;2023-02-02T11:03:13;6.50;99.90
52879;DHT22;38747;53.140;6.498;2023-02-02T11:05:39;6.60;99.90
52879;DHT22;38747;53.140;6.498;2023-02-02T11:08:47;6.60;99.90
52879;DHT22;38747;53.140;6.498;2023-02-02T11:11:20;6.60;99.90
52879;DHT22;38747;53.140;6.498;2023-02-02T11:13:54;6.60;99.90
52879;DHT22;38747;53.140;6.498;2023-02-02T11:18:51;6.60;99.90
52879;DHT22;38747;53.140;6.498;2023-02-02T11:24:00;6.60;99.90
52879;DHT22;38747;53.140;6.498;2023-02-02T11:29:17;6.50;99.90
52879;DHT22;38747;53.140;6.498;2023-02-02T11:31:45;6.50;99.90
52879;DHT22;38747;53.140;6.498;2023-02-02T11:34:21;6.50;99.90
52879;DHT22;38747;53.140;6.498;2023-02-02T11:37:10;6.50;99.90
52879;DHT22;38747;53.140;6.498;2023-02-02T11:39:38;6.50;99.90
52879;DHT22;38747;53.140;6.498;2023-02-02T11:44:37;6.50;99.90
52879;DHT22;38747;53.140;6.498;2023-02-02T11:47:04;6.50;99.90
52879;DHT22;38747;53.140;6.498;2023-02-02T11:49:36;6.50;99.90
52879;DHT22;38747;53.140;6.498;2023-02-02T11:52:05;6.50;99.90
52879;DHT22;38747;53.140;6.498;2023-02-02T11:54:37;6.50;99.90
52879;DHT22;38747;53.140;6.498;2023-02-02T11:57:19;6.60;99.90
52879;DHT22;38747;53.140;6.498;2023-02-02T11:59:48;6.70;99.90
52879;DHT22;38747;53.140;6.498;2023-02-02T12:04:52;6.70;99.90
52879;DHT22;38747;53.140;6.498;2023-02-02T12:07:22;6.60;99.90
52879;DHT22;38747;53.140;6.498;2023-02-02T12:09:49;6.60;99.90
52879;DHT22;38747;53.140;6.498;2023-02-02T12:12:41;6.60;99.90
52879;DHT22;38747;53.140;6.498;2023-02-02T12:17:43;6.70;99.90
52879;DHT22;38747;53.140;6.498;2023-02-02T12:20:25;6.70;99.90
52879;DHT22;38747;53.140;6.498;2023-02-02T12:26:05;6.70;99.90
52879;DHT22;38747;53.140;6.498;2023-02-02T12:39:29;6.70;99.90
52879;DHT22;38747;53.140;6.498;2023-02-02T12:48:04;6.70;99.90
52879;DHT22;38747;53.140;6.498;2023-02-02T12:55:42;6.60;99.90
52879;DHT22;38747;53.140;6.498;2023-02-02T13:08:56;6.50;99.90
52879;DHT22;38747;53.140;6.498;2023-02-02T13:11:58;6.50;99.90
52879;DHT22;38747;53.140;6.498;2023-02-02T13:14:29;6.40;99.90
52879;DHT22;38747;53.140;6.498;2023-02-02T13:17:00;6.50;99.90
52879;DHT22;38747;53.140;6.498;2023-02-02T13:19:40;6.40;99.90
52879;DHT22;38747;53.140;6.498;2023-02-02T13:22:12;6.40;99.90
52879;DHT22;38747;53.140;6.498;2023-02-02T13:24:43;6.40;99.90
52879;DHT22;38747;53.140;6.498;2023-02-02T13:27:14;6.40;99.90
52879;DHT22;38747;53.140;6.498;2023-02-02T13:32:18;6.40;99.90
52879;DHT22;38747;53.140;6.498;2023-02-02T13:37:29;6.40;99.90
52879;DHT22;38747;53.140;6.498;2023-02-02T13:40:05;6.40;99.90
52879;DHT22;38747;53.140;6.498;2023-02-02T13:46:21;6.40;99.90
52879;DHT22;38747;53.140;6.498;2023-02-02T13:59:09;6.40;99.90
52879;DHT22;38747;53.140;6.498;2023-02-02T14:01:41;6.40;99.90
52879;DHT22;38747;53.140;6.498;2023-02-02T14:04:26;6.30;99.90
52879;DHT22;38747;53.140;6.498;2023-02-02T14:06:56;6.40;99.90
52879;DHT22;38747;53.140;6.498;2023-02-02T14:09:27;6.30;99.90
52879;DHT22;38747;53.140;6.498;2023-02-02T14:12:06;6.30;99.90
52879;DHT22;38747;53.140;6.498;2023-02-02T14:14:34;6.30;99.90
52879;DHT22;38747;53.140;6.498;2023-02-02T14:19:56;6.30;99.90
52879;DHT22;38747;53.140;6.498;2023-02-02T14:22:47;6.30;99.90
52879;DHT22;38747;53.140;6.498;2023-02-02T14:27:59;6.40;99.90
52879;DHT22;38747;53.140;6.498;2023-02-02T14:30:29;6.40;99.90
52879;DHT22;38747;53.140;6.498;2023-02-02T14:33:18;6.40;99.90
52879;DHT22;38747;53.140;6.498;2023-02-02T14:38:50;6.40;99.90
52879;DHT22;38747;53.140;6.498;2023-02-02T14:41:38;6.40;99.90
52879;DHT22;38747;53.140;6.498;2023-02-02T14:44:25;6.40;99.90
52879;DHT22;38747;53.140;6.498;2023-02-02T14:46:51;6.40;99.90
52879;DHT22;38747;53.140;6.498;2023-02-02T14:49:19;6.40;99.90
52879;DHT22;38747;53.140;6.498;2023-02-02T14:51:54;6.40;99.90
52879;DHT22;38747;53.140;6.498;2023-02-02T14:54:33;6.40;99.90
52879;DHT22;38747;53.140;6.498;2023-02-02T14:57:04;6.50;99.90
52879;DHT22;38747;53.140;6.498;2023-02-02T14:59:35;6.50;99.90
52879;DHT22;38747;53.140;6.498;2023-02-02T15:02:15;6.50;99.90
52879;DHT22;38747;53.140;6.498;2023-02-02T15:04:42;6.50;99.90
52879;DHT22;38747;53.140;6.498;2023-02-02T15:09:50;6.60;99.90
52879;DHT22;38747;53.140;6.498;2023-02-02T15:12:18;6.60;99.90
52879;DHT22;38747;53.140;6.498;2023-02-02T15:25:50;6.80;99.90
52879;DHT22;38747;53.140;6.498;2023-02-02T15:28:50;6.80;99.90
52879;DHT22;38747;53.140;6.498;2023-02-02T15:31:33;6.80;99.90
52879;DHT22;38747;53.140;6.498;2023-02-02T15:34:02;6.80;99.90
52879;DHT22;38747;53.140;6.498;2023-02-02T15:36:35;6.80;99.90
52879;DHT22;38747;53.140;6.498;2023-02-02T15:39:09;6.90;99.90
52879;DHT22;38747;53.140;6.498;2023-02-02T15:41:36;6.80;99.90
52879;DHT22;38747;53.140;6.498;2023-02-02T15:44:26;6.90;99.90
52879;DHT22;38747;53.140;6.498;2023-02-02T15:46:53;6.80;99.90
52879;DHT22;38747;53.140;6.498;2023-02-02T15:51:47;6.90;99.90
52879;DHT22;38747;53.140;6.498;2023-02-02T15:54:29;6.90;99.90
52879;DHT22;38747;53.140;6.498;2023-02-02T15:57:00;6.90;99.90
52879;DHT22;38747;53.140;6.498;2023-02-02T15:59:28;6.90;99.90
52879;DHT22;38747;53.140;6.498;2023-02-02T16:04:36;6.90;99.90
52879;DHT22;38747;53.140;6.498;2023-02-02T16:07:10;6.90;99.90
52879;DHT22;38747;53.140;6.498;2023-02-02T16:09:37;6.90;99.90
52879;DHT22;38747;53.140;6.498;2023-02-02T16:12:04;6.90;99.90
52879;DHT22;38747;53.140;6.498;2023-02-02T16:14:31;7.00;99.90
52879;DHT22;38747;53.140;6.498;2023-02-02T16:17:11;7.00;99.90
52879;DHT22;38747;53.140;6.498;2023-02-02T16:19:40;7.00;99.90
52879;DHT22;38747;53.140;6.498;2023-02-02T16:22:10;7.00;99.90
52879;DHT22;38747;53.140;6.498;2023-02-02T16:24:43;6.90;99.90
52879;DHT22;38747;53.140;6.498;2023-02-02T16:27:13;7.00;99.90
52879;DHT22;38747;53.140;6.498;2023-02-02T16:29:41;7.00;99.90
52879;DHT22;38747;53.140;6.498;2023-02-02T16:32:31;7.00;99.90
52879;DHT22;38747;53.140;6.498;2023-02-02T16:34:58;7.00;99.90
52879;DHT22;38747;53.140;6.498;2023-02-02T16:37:26;7.00;99.90
52879;DHT22;38747;53.140;6.498;2023-02-02T16:39:54;7.00;99.90
52879;DHT22;38747;53.140;6.498;2023-02-02T16:44:49;7.10;99.90
52879;DHT22;38747;53.140;6.498;2023-02-02T16:50:07;7.10;99.90
52879;DHT22;38747;53.140;6.498;2023-02-02T16:53:01;7.20;99.90
52879;DHT22;38747;53.140;6.498;2023-02-02T16:55:29;7.10;99.90
52879;DHT22;38747;53.140;6.498;2023-02-02T16:57:57;7.10;99.90
52879;DHT22;38747;53.140;6.498;2023-02-02T17:00:26;7.10;99.90
52879;DHT22;38747;53.140;6.498;2023-02-02T17:03:18;7.20;99.90
52879;DHT22;38747;53.140;6.498;2023-02-02T17:05:52;7.20;99.90
52879;DHT22;38747;53.140;6.498;2023-02-02T17:08:26;7.20;99.90
52879;DHT22;38747;53.140;6.498;2023-02-02T17:11:21;7.20;99.90
52879;DHT22;38747;53.140;6.498;2023-02-02T17:13:48;7.20;99.90
52879;DHT22;38747;53.140;6.498;2023-02-02T17:16:19;7.30;99.90
52879;DHT22;38747;53.140;6.498;2023-02-02T17:18:45;7.20;99.90
52879;DHT22;38747;53.140;6.498;2023-02-02T17:21:19;7.20;99.90
52879;DHT22;38747;53.140;6.498;2023-02-02T17:23:47;7.30;99.90
52879;DHT22;38747;53.140;6.498;2023-02-02T17:26:16;7.30;99.90
52879;DHT22;38747;53.140;6.498;2023-02-02T17:28:42;7.30;99.90
52879;DHT22;38747;53.140;6.498;2023-02-02T17:31:12;7.30;99.90
52879;DHT22;38747;53.140;6.498;2023-02-02T17:33:39;7.30;99.90
52879;DHT22;38747;53.140;6.498;2023-02-02T17:36:05;7.30;99.90
52879;DHT22;38747;53.140;6.498;2023-02-02T17:38:31;7.30;99.90
52879;DHT22;38747;53.140;6.498;2023-02-02T17:40:59;7.30;99.90
52879;DHT22;38747;53.140;6.498;2023-02-02T17:43:25;7.30;99.90
52879;DHT22;38747;53.140;6.498;2023-02-02T17:45:51;7.30;99.90
52879;DHT22;38747;53.140;6.498;2023-02-02T17:48:17;7.30;99.90
52879;DHT22;38747;53.140;6.498;2023-02-02T17:50:44;7.30;99.90
52879;DHT22;38747;53.140;6.498;2023-02-02T17:53:14;7.40;99.90
52879;DHT22;38747;53.140;6.498;2023-02-02T17:55:41;7.40;99.90
52879;DHT22;38747;53.140;6.498;2023-02-02T17:58:08;7.40;99.90
52879;DHT22;38747;53.140;6.498;2023-02-02T18:00:35;7.40;99.90
52879;DHT22;38747;53.140;6.498;2023-02-02T18:03:12;7.40;99.90
52879;DHT22;38747;53.140;6.498;2023-02-02T18:05:39;7.40;99.90
52879;DHT22;38747;53.140;6.498;2023-02-02T18:08:05;7.40;99.90
52879;DHT22;38747;53.140;6.498;2023-02-02T18:10:31;7.40;99.90
52879;DHT22;38747;53.140;6.498;2023-02-02T18:12:56;7.50;99.90
52879;DHT22;38747;53.140;6.498;2023-02-02T18:15:22;7.50;99.90
52879;DHT22;38747;53.140;6.498;2023-02-02T18:17:48;7.50;99.90
52879;DHT22;38747;53.140;6.498;2023-02-02T18:20:14;7.50;99.90
52879;DHT22;38747;53.140;6.498;2023-02-02T18:22:41;7.50;99.90
52879;DHT22;38747;53.140;6.498;2023-02-02T18:25:09;7.40;99.90
52879;DHT22;38747;53.140;6.498;2023-02-02T18:27:35;7.50;99.90
52879;DHT22;38747;53.140;6.498;2023-02-02T18:30:02;7.50;99.90
52879;DHT22;38747;53.140;6.498;2023-02-02T18:32:28;7.50;99.90